createdAt,value
2024-02-10T00:02:17.303Z,98541.25
2024-02-10T00:04:44.200Z,98542.81
2024-02-10T00:07:11.196Z,98540.88
2024-02-10T00:09:38.844Z,98535.66
2024-02-10T00:12:06.633Z,98539.75
2024-02-10T00:14:35.430Z,98535.91
2024-02-10T00:17:04.486Z,98534.97
2024-02-10T00:19:31.039Z,98535.91
2024-02-10T00:21:58.047Z,98534.81
2024-02-10T00:24:27.616Z,98539.63
2024-02-10T00:26:54.136Z,98536.72
2024-02-10T00:29:23.413Z,98540.97
2024-02-10T00:31:49.963Z,98541.81
2024-02-10T00:34:16.638Z,98538.22
2024-02-10T00:36:43.324Z,98534.78
2024-02-10T00:39:11.725Z,98533.31
2024-02-10T00:41:39.894Z,98527.94
2024-02-10T00:44:06.399Z,98544.69
2024-02-10T00:46:33.069Z,98541.13
2024-02-10T00:48:59.792Z,98536.72
2024-02-10T00:51:28.358Z,98543.56
2024-02-10T00:53:54.994Z,98535.75
2024-02-10T00:56:21.504Z,98538.09
2024-02-10T00:58:49.447Z,98547.69
2024-02-10T01:01:21.553Z,98538.34
2024-02-10T01:03:50.230Z,98541.94
2024-02-10T01:06:21.340Z,98539.03
2024-02-10T01:08:50.208Z,98536.84
2024-02-10T01:11:19.311Z,98547.59
2024-02-10T01:13:47.121Z,98541.38
2024-02-10T01:16:16.890Z,98538.94
2024-02-10T01:18:45.025Z,98546.22
2024-02-10T01:21:12.100Z,98544.69
2024-02-10T01:23:43.377Z,98546.22
2024-02-10T01:26:13.325Z,98541.81
2024-02-10T01:28:45.722Z,98545.41
2024-02-10T01:33:44.301Z,98546.31
2024-02-10T01:36:11.929Z,98544.16
2024-02-10T01:38:44.193Z,98543.34
2024-02-10T01:41:12.671Z,98549.38
2024-02-10T01:43:40.170Z,98555.38
2024-02-10T01:46:08.195Z,98547.56
2024-02-10T01:48:35.666Z,98546.88
2024-02-10T01:51:02.701Z,98549.50
2024-02-10T01:53:29.465Z,98551.16
2024-02-10T01:55:56.506Z,98549.38
2024-02-10T01:58:24.441Z,98540.06
2024-02-10T02:00:50.964Z,98545.25
2024-02-10T02:03:17.533Z,98544.28
2024-02-10T02:05:45.174Z,98545.25
2024-02-10T02:08:12.293Z,98553.22
2024-02-10T02:10:39.025Z,98547.06
2024-02-10T02:13:06.551Z,98546.06
2024-02-10T02:15:33.671Z,98543.34
2024-02-10T02:18:00.990Z,98543.47
2024-02-10T02:20:29.596Z,98539.06
2024-02-10T02:22:56.785Z,98533.06
2024-02-10T02:25:24.515Z,98540.72
2024-02-10T02:27:51.120Z,98534.69
2024-02-10T02:30:17.900Z,98541.53
2024-02-10T02:32:44.855Z,98541.53
2024-02-10T02:35:11.637Z,98543.03
2024-02-10T02:37:42.982Z,98536.88
2024-02-10T02:40:11.361Z,98535.81
2024-02-10T02:42:38.182Z,98539.22
2024-02-10T02:45:07.387Z,98537.16
2024-02-10T02:47:35.904Z,98536.34
2024-02-10T02:50:02.879Z,98538.66
2024-02-10T02:52:31.455Z,98537.97
2024-02-10T02:55:00.518Z,98537.03
2024-02-10T02:57:27.268Z,98536.19
2024-02-10T02:59:53.766Z,98536.19
2024-02-10T03:02:20.396Z,98536.03
2024-02-10T03:04:47.061Z,98534.41
2024-02-10T03:07:19.581Z,98531.94
2024-02-10T03:09:46.867Z,98518.09
2024-02-10T03:12:13.437Z,98520.25
2024-02-10T03:14:41.350Z,98521.38
2024-02-10T03:17:12.097Z,98524.13
2024-02-10T03:19:38.713Z,98514.94
2024-02-10T03:22:06.942Z,98517.03
2024-02-10T03:24:34.531Z,98513.75
2024-02-10T03:27:04.178Z,98508.81
2024-02-10T03:29:31.104Z,98508.00
2024-02-10T03:31:57.651Z,98513.34
2024-02-10T03:34:24.330Z,98513.63
2024-02-10T03:36:50.838Z,98516.06
2024-02-10T03:39:17.825Z,98510.06
2024-02-10T03:41:44.260Z,98507.44
2024-02-10T03:44:10.705Z,98506.63
2024-02-10T03:46:37.262Z,98513.75
2024-02-10T03:49:03.789Z,98507.19
2024-02-10T03:51:30.927Z,98508.31
2024-02-10T03:53:57.401Z,98503.34
2024-02-10T03:56:25.110Z,98514.06
2024-02-10T03:58:51.980Z,98517.78
2024-02-10T04:01:18.608Z,98524.78
2024-02-10T04:03:46.507Z,98525.06
2024-02-10T04:06:16.903Z,98527.38
2024-02-10T04:08:47.349Z,98525.59
2024-02-10T04:11:15.036Z,98528.06
2024-02-10T04:13:43.112Z,98527.91
2024-02-10T04:16:13.662Z,98532.31
2024-02-10T04:18:42.096Z,98533.97
2024-02-10T04:21:09.651Z,98532.00
2024-02-10T04:23:38.700Z,98528.75
2024-02-10T04:26:08.187Z,98529.56
2024-02-10T04:28:35.053Z,98535.47
2024-02-10T04:31:01.540Z,98537.09
2024-02-10T04:33:28.076Z,98533.53
2024-02-10T04:35:54.600Z,98536.81
2024-02-10T04:38:23.158Z,98541.06
2024-02-10T04:40:49.711Z,98533.38
2024-02-10T04:43:18.671Z,98536.66
2024-02-10T04:45:45.569Z,98535.72
2024-02-10T04:48:14.970Z,98533.78
2024-02-10T04:50:42.386Z,98532.69
2024-02-10T04:53:09.194Z,98535.16
2024-02-10T04:55:37.719Z,98532.38
2024-02-10T04:58:04.711Z,98535.97
2024-02-10T05:00:31.164Z,98539.25
2024-02-10T05:02:57.633Z,98537.59
2024-02-10T05:05:24.343Z,98532.38
2024-02-10T05:07:54.670Z,98540.88
2024-02-10T05:10:21.600Z,98537.31
2024-02-10T05:12:49.169Z,98542.53
2024-02-10T05:15:19.789Z,98543.50
2024-02-10T05:17:50.147Z,98537.31
2024-02-10T05:20:24.766Z,98541.28
2024-02-10T05:22:59.477Z,98548.31
2024-02-10T05:25:28.744Z,98555.03
2024-02-10T05:28:02.762Z,98551.31
2024-02-10T05:30:29.873Z,98547.88
2024-02-10T05:33:05.934Z,98559.28
2024-02-10T05:35:33.248Z,98561.72
2024-02-10T05:38:03.958Z,98567.22
2024-02-10T05:40:31.559Z,98567.38
2024-02-10T05:43:00.523Z,98567.53
2024-02-10T05:45:27.516Z,98564.63
2024-02-10T05:47:54.177Z,98569.16
2024-02-10T05:50:24.327Z,98569.97
2024-02-10T05:52:52.590Z,98571.75
2024-02-10T05:55:22.587Z,98569.84
2024-02-10T05:57:49.456Z,98569.16
2024-02-10T06:00:16.869Z,98572.72
2024-02-10T06:02:43.453Z,98577.09
2024-02-10T06:05:17.217Z,98574.66
2024-02-10T06:07:44.472Z,98570.41
2024-02-10T06:10:15.413Z,98562.88
2024-02-10T06:12:53.017Z,98578.88
2024-02-10T06:15:20.758Z,98579.56
2024-02-10T06:17:53.952Z,98583.72
2024-02-10T06:20:23.996Z,98584.94
2024-02-10T06:22:54.207Z,98594.13
2024-02-10T06:25:25.978Z,98593.28
2024-02-10T06:27:58.286Z,98600.97
2024-02-10T06:30:29.409Z,98603.56
2024-02-10T06:32:59.336Z,98608.91
2024-02-10T06:35:26.993Z,98612.50
2024-02-10T06:37:55.576Z,98610.56
2024-02-10T06:40:23.912Z,98614.00
2024-02-10T06:42:52.667Z,98603.56
2024-02-10T06:45:22.278Z,98610.56
2024-02-10T06:47:49.310Z,98607.84
2024-02-10T06:50:16.218Z,98610.28
2024-02-10T06:52:43.756Z,98611.81
2024-02-10T06:55:13.694Z,98609.34
2024-02-10T06:57:42.932Z,98612.06
2024-02-10T07:00:16.956Z,98616.34
2024-02-10T07:02:45.183Z,98620.44
2024-02-10T07:05:14.192Z,98627.31
2024-02-10T07:07:43.038Z,98629.22
2024-02-10T07:10:16.156Z,98634.84
2024-02-10T07:12:47.282Z,98631.84
2024-02-10T07:15:18.565Z,98636.34
2024-02-10T07:17:51.490Z,98635.53
2024-02-10T07:20:25.139Z,98640.31
2024-02-10T07:22:56.336Z,98640.44
2024-02-10T07:25:27.800Z,98633.31
2024-02-10T07:28:01.993Z,98638.81
2024-02-10T07:30:30.537Z,98642.53
2024-02-10T07:33:04.805Z,98642.94
2024-02-10T07:35:32.687Z,98643.34
2024-02-10T07:37:59.715Z,98656.50
2024-02-10T07:40:26.299Z,98656.50
2024-02-10T07:42:53.673Z,98654.72
2024-02-10T07:45:21.159Z,98663.34
2024-02-10T07:47:48.047Z,98662.25
2024-02-10T07:50:15.517Z,98665.69
2024-02-10T07:52:43.352Z,98662.81
2024-02-10T07:55:14.257Z,98665.97
2024-02-10T07:57:40.810Z,98660.59
2024-02-10T08:00:11.014Z,98667.47
2024-02-10T08:02:38.525Z,98667.34
2024-02-10T08:05:06.179Z,98663.06
2024-02-10T08:07:34.062Z,98660.47
2024-02-10T08:10:01.880Z,98673.25
2024-02-10T08:12:28.364Z,98676.66
2024-02-10T08:14:56.830Z,98681.19
2024-02-10T08:17:27.830Z,98676.09
2024-02-10T08:19:58.173Z,98676.91
2024-02-10T08:22:32.403Z,98686.09
2024-02-10T08:25:00.421Z,98684.47
2024-02-10T08:27:27.752Z,98684.06
2024-02-10T08:29:55.226Z,98679.53
2024-02-10T08:32:22.105Z,98692.44
2024-02-10T08:34:49.607Z,98684.06
2024-02-10T08:37:16.467Z,98695.00
2024-02-10T08:39:44.942Z,98689.25
2024-02-10T08:42:12.541Z,98687.09
2024-02-10T08:44:39.118Z,98694.47
2024-02-10T08:47:06.885Z,98689.56
2024-02-10T08:49:36.187Z,98692.28
2024-02-10T08:52:17.588Z,98695.97
2024-02-10T08:54:45.122Z,98698.03
2024-02-10T08:57:11.835Z,98699.41
2024-02-10T08:59:42.597Z,98705.47
2024-02-10T09:02:09.642Z,98704.47
2024-02-10T09:04:39.935Z,98705.97
2024-02-10T09:07:08.074Z,98712.56
2024-02-10T09:09:35.159Z,98717.78
2024-02-10T09:12:01.843Z,98714.91
2024-02-10T09:14:28.456Z,98717.78
2024-02-10T09:16:54.980Z,98718.03
2024-02-10T09:19:21.582Z,98715.81
2024-02-10T09:21:55.391Z,98718.03
2024-02-10T09:24:26.233Z,98717.44
2024-02-10T09:26:54.273Z,98719.22
2024-02-10T09:29:20.714Z,98719.91
2024-02-10T09:31:48.068Z,98723.06
2024-02-10T09:34:15.555Z,98727.47
2024-02-10T09:36:45.502Z,98732.63
2024-02-10T09:39:17.128Z,98730.69
2024-02-10T09:41:43.717Z,98730.69
2024-02-10T09:44:12.055Z,98728.34
2024-02-10T09:46:39.681Z,98739.75
2024-02-10T09:49:09.886Z,98745.34
2024-02-10T09:51:42.213Z,98734.09
2024-02-10T09:54:15.019Z,98739.31
2024-02-10T09:56:44.290Z,98742.56
2024-02-10T09:59:17.533Z,98740.63
2024-02-10T10:01:45.344Z,98736.00
2024-02-10T10:04:12.498Z,98739.94
2024-02-10T10:06:47.942Z,98747.13
2024-02-10T10:09:19.206Z,98739.72
2024-02-10T10:11:46.863Z,98743.00
2024-02-10T10:14:18.075Z,98748.06
2024-02-10T10:17:03.916Z,98754.09
2024-02-10T10:19:31.239Z,98750.38
2024-02-10T10:21:59.057Z,98751.38
2024-02-10T10:24:29.840Z,98758.88
2024-02-10T10:27:00.622Z,98758.88
2024-02-10T10:29:30.217Z,98758.19
2024-02-10T10:32:00.888Z,98754.78
2024-02-10T10:34:30.839Z,98758.06
2024-02-10T10:37:02.928Z,98750.38
2024-02-10T10:39:32.450Z,98753.06
2024-02-10T10:41:59.935Z,98761.72
2024-02-10T10:44:29.359Z,98758.53
2024-02-10T10:47:00.608Z,98751.75
2024-02-10T10:49:27.212Z,98753.13
2024-02-10T10:52:00.737Z,98757.53
2024-02-10T10:54:34.619Z,98751.59
2024-02-10T10:57:04.028Z,98752.13
2024-02-10T10:59:36.798Z,98744.81
2024-02-10T11:02:09.443Z,98757.50
2024-02-10T11:04:36.352Z,98755.72
2024-02-10T11:07:14.636Z,98750.44
2024-02-10T11:09:53.818Z,98754.69
2024-02-10T11:12:20.470Z,98754.69
2024-02-10T11:14:57.721Z,98747.16
2024-02-10T11:17:25.907Z,98745.69
2024-02-10T11:20:06.360Z,98740.91
2024-02-10T11:22:41.706Z,98741.44
2024-02-10T11:25:16.596Z,98733.72
2024-02-10T11:27:47.817Z,98734.53
2024-02-10T11:30:14.419Z,98731.34
2024-02-10T11:32:49.188Z,98731.06
2024-02-10T11:35:16.069Z,98731.41
2024-02-10T11:37:42.883Z,98734.03
2024-02-10T11:40:12.998Z,98731.88
2024-02-10T11:42:40.317Z,98726.03
2024-02-10T11:45:11.335Z,98724.78
2024-02-10T11:47:38.339Z,98735.22
2024-02-10T11:50:05.908Z,98734.56
2024-02-10T11:52:33.545Z,98729.41
2024-02-10T11:55:00.176Z,98724.53
2024-02-10T11:57:28.562Z,98718.69
2024-02-10T11:59:56.927Z,98717.78
2024-02-10T12:02:24.378Z,98720.59
2024-02-10T12:04:52.203Z,98720.97
2024-02-10T12:07:19.332Z,98716.34
2024-02-10T12:09:45.971Z,98715.59
2024-02-10T12:12:15.120Z,98713.84
2024-02-10T12:14:41.823Z,98707.34
2024-02-10T12:17:08.426Z,98712.16
2024-02-10T12:19:41.766Z,98709.28
2024-02-10T12:22:11.010Z,98709.91
2024-02-10T12:24:42.722Z,98706.97
2024-02-10T12:27:09.190Z,98707.63
2024-02-10T12:29:39.335Z,98704.91
2024-02-10T12:32:06.929Z,98694.56
2024-02-10T12:34:33.558Z,98695.19
2024-02-10T12:37:00.214Z,98701.91
2024-02-10T12:39:26.770Z,98706.28
2024-02-10T12:41:54.585Z,98712.84
2024-02-10T12:44:21.206Z,98703.19
2024-02-10T12:46:47.726Z,98703.19
2024-02-10T12:49:14.744Z,98701.44
2024-02-10T12:51:41.910Z,98699.69
2024-02-10T12:54:11.737Z,98701.56
2024-02-10T12:56:39.285Z,98700.91
2024-02-10T12:59:08.370Z,98708.75
2024-02-10T13:01:35.036Z,98705.75
2024-02-10T13:04:04.228Z,98715.59
2024-02-10T13:06:33.986Z,98717.88
2024-02-10T13:09:00.626Z,98715.59
2024-02-10T13:11:27.511Z,98712.13
2024-02-10T13:13:56.441Z,98711.66
2024-02-10T13:16:23.431Z,98713.63
2024-02-10T13:18:50.144Z,98715.59
2024-02-10T13:21:19.017Z,98711.00
2024-02-10T13:23:45.655Z,98715.41
2024-02-10T13:26:15.083Z,98718.84
2024-02-10T13:28:46.428Z,98710.50
2024-02-10T13:31:13.871Z,98722.44
2024-02-10T13:33:41.985Z,98714.94
2024-02-10T13:36:22.231Z,98714.50
2024-02-10T13:39:07.309Z,98720.84
2024-02-10T13:41:52.152Z,98714.00
2024-02-10T13:44:37.111Z,98717.75
2024-02-10T13:47:22.092Z,98719.50
2024-02-10T13:50:06.813Z,98722.81
2024-02-10T13:52:51.732Z,98716.13
2024-02-10T13:55:36.594Z,98714.66
2024-02-10T13:58:12.185Z,98714.13
2024-02-10T14:00:45.370Z,98717.78
2024-02-10T14:03:14.436Z,98716.91
2024-02-10T14:05:48.706Z,98711.44
2024-02-10T14:08:16.367Z,98716.34
2024-02-10T14:10:56.998Z,98709.31
2024-02-10T14:13:26.989Z,98717.00
2024-02-10T14:15:58.354Z,98715.53
2024-02-10T14:18:30.485Z,98713.88
2024-02-10T14:21:24.214Z,98715.38
2024-02-10T14:23:50.778Z,98715.38
2024-02-10T14:26:26.454Z,98723.84
2024-02-10T14:28:56.650Z,98718.16
2024-02-10T14:31:23.738Z,98717.00
2024-02-10T14:33:58.868Z,98721.94
2024-02-10T14:36:39.239Z,98724.72
2024-02-10T14:39:14.595Z,98720.69
2024-02-10T14:41:42.964Z,98726.19
2024-02-10T14:44:11.353Z,98731.56
2024-02-10T14:46:43.976Z,98724.13
2024-02-10T14:49:15.171Z,98728.22
2024-02-10T14:51:44.292Z,98719.69
2024-02-10T14:54:11.131Z,98721.78
2024-02-10T14:56:39.662Z,98721.56
2024-02-10T14:59:07.093Z,98719.63
2024-02-10T15:01:35.537Z,98725.53
2024-02-10T15:04:06.960Z,98719.16
2024-02-10T15:06:36.142Z,98714.75
2024-02-10T15:09:09.333Z,98716.38
2024-02-10T15:11:38.122Z,98713.78
2024-02-10T15:14:08.264Z,98712.44
2024-02-10T15:16:35.414Z,98717.16
2024-02-10T15:19:02.102Z,98716.34
2024-02-10T15:21:33.942Z,98711.44
2024-02-10T15:24:01.057Z,98714.19
2024-02-10T15:26:27.994Z,98722.19
2024-02-10T15:28:55.016Z,98722.50
2024-02-10T15:31:22.964Z,98722.00
2024-02-10T15:33:57.377Z,98727.69
2024-02-10T15:36:28.349Z,98726.34
2024-02-10T15:39:02.523Z,98718.97
2024-02-10T15:41:29.340Z,98723.00
2024-02-10T15:43:56.453Z,98724.94
2024-02-10T15:46:23.268Z,98722.50
2024-02-10T15:48:54.633Z,98723.59
2024-02-10T15:51:22.144Z,98721.31
2024-02-10T15:53:48.740Z,98714.59
2024-02-10T15:56:15.195Z,98720.94
2024-02-10T15:58:50.634Z,98715.06
2024-02-10T16:01:18.788Z,98732.50
2024-02-10T16:03:45.545Z,98731.03
2024-02-10T16:06:12.314Z,98725.28
2024-02-10T16:08:45.739Z,98728.41
2024-02-10T16:11:13.199Z,98729.00
2024-02-10T16:13:40.870Z,98724.25
2024-02-10T16:16:09.047Z,98721.63
2024-02-10T16:18:36.444Z,98723.72
2024-02-10T16:21:03.012Z,98722.22
2024-02-10T16:23:29.415Z,98726.94
2024-02-10T16:25:58.194Z,98731.47
2024-02-10T16:28:24.983Z,98719.72
2024-02-10T16:30:51.577Z,98724.41
2024-02-10T16:33:18.728Z,98724.00
2024-02-10T16:35:47.127Z,98724.47
2024-02-10T16:38:13.988Z,98721.19
2024-02-10T16:40:41.260Z,98719.41
2024-02-10T16:43:08.964Z,98712.84
2024-02-10T16:45:36.558Z,98723.56
2024-02-10T16:48:04.579Z,98716.19
2024-02-10T16:50:31.859Z,98724.00
2024-02-10T16:53:06.307Z,98721.72
2024-02-10T16:55:38.256Z,98717.56
2024-02-10T16:58:09.068Z,98712.81
2024-02-10T17:00:39.315Z,98716.22
2024-02-10T17:03:09.038Z,98716.94
2024-02-10T17:05:50.013Z,98715.97
2024-02-10T17:08:16.864Z,98712.44
2024-02-10T17:10:43.386Z,98720.59
2024-02-10T17:13:10.924Z,98723.47
2024-02-10T17:15:42.209Z,98722.66
2024-02-10T17:18:16.394Z,98726.00
2024-02-10T17:20:59.226Z,98725.63
2024-02-10T17:23:26.189Z,98725.91
2024-02-10T17:25:57.409Z,98723.13
2024-02-10T17:28:25.083Z,98725.38
2024-02-10T17:30:52.505Z,98724.69
2024-02-10T17:33:23.552Z,98729.91
2024-02-10T17:35:51.970Z,98728.13
2024-02-10T17:38:22.848Z,98731.72
2024-02-10T17:40:49.634Z,98741.16
2024-02-10T17:43:21.787Z,98736.50
2024-02-10T17:45:49.331Z,98738.56
2024-02-10T17:48:23.682Z,98736.75
2024-02-10T17:50:51.697Z,98741.03
2024-02-10T17:53:29.139Z,98742.28
2024-02-10T17:55:57.359Z,98743.25
2024-02-10T17:58:30.249Z,98741.59
2024-02-10T18:00:57.720Z,98737.34
2024-02-10T18:03:25.626Z,98741.59
2024-02-10T18:05:57.283Z,98741.59
2024-02-10T18:08:24.899Z,98739.69
2024-02-10T18:10:51.604Z,98751.38
2024-02-10T18:13:18.565Z,98741.22
2024-02-10T18:15:45.142Z,98746.59
2024-02-10T18:18:12.270Z,98739.72
2024-02-10T18:20:39.383Z,98744.13
2024-02-10T18:23:11.300Z,98739.44
2024-02-10T18:25:42.288Z,98742.47
2024-02-10T18:28:14.831Z,98741.94
2024-02-10T18:30:45.944Z,98740.28
2024-02-10T18:33:14.690Z,98741.94
2024-02-10T18:35:43.719Z,98740.97
2024-02-10T18:38:12.562Z,98746.03
2024-02-10T18:40:39.170Z,98749.47
2024-02-10T18:43:05.596Z,98748.66
2024-02-10T18:45:35.660Z,98750.44
2024-02-10T18:48:03.163Z,98756.47
2024-02-10T18:50:29.729Z,98763.34
2024-02-10T18:52:58.319Z,98757.47
2024-02-10T18:55:25.633Z,98760.19
2024-02-10T18:57:52.154Z,98762.13
2024-02-10T19:00:20.813Z,98761.84
2024-02-10T19:02:50.669Z,98763.50
2024-02-10T19:05:18.607Z,98764.59
2024-02-10T19:07:46.399Z,98767.34
2024-02-10T19:10:13.726Z,98760.75
2024-02-10T19:12:41.345Z,98754.72
2024-02-10T19:15:08.654Z,98752.41
2024-02-10T19:17:41.105Z,98751.44
2024-02-10T19:20:13.003Z,98744.88
2024-02-10T19:22:40.224Z,98747.59
2024-02-10T19:25:08.410Z,98747.22
2024-02-10T19:27:36.671Z,98751.31
2024-02-10T19:30:10.239Z,98745.56
2024-02-10T19:32:41.452Z,98748.84
2024-02-10T19:35:35.590Z,98748.47
2024-02-10T19:38:02.579Z,98742.94
2024-02-10T19:40:29.126Z,98748.16
2024-02-10T19:42:56.925Z,98748.34
2024-02-10T19:45:26.462Z,98751.06
2024-02-10T19:47:54.105Z,98760.00
2024-02-10T19:50:21.285Z,98753.44
2024-02-10T19:52:48.301Z,98756.84
2024-02-10T19:55:16.269Z,98756.97
2024-02-10T19:57:43.094Z,98759.88
2024-02-10T20:00:16.726Z,98755.34
2024-02-10T20:02:43.712Z,98754.81
2024-02-10T20:05:10.882Z,98756.72
2024-02-10T20:07:39.211Z,98752.31
2024-02-10T20:10:06.249Z,98763.44
2024-02-10T20:12:32.840Z,98762.50
2024-02-10T20:15:00.768Z,98757.53
2024-02-10T20:17:32.166Z,98763.03
2024-02-10T20:20:17.762Z,98769.38
2024-02-10T20:22:45.525Z,98773.75
2024-02-10T20:25:13.446Z,98767.44
2024-02-10T20:27:42.896Z,98767.97
2024-02-10T20:30:11.102Z,98767.97
2024-02-10T20:32:37.703Z,98768.66
2024-02-10T20:35:04.543Z,98763.59
2024-02-10T20:37:31.312Z,98760.31
2024-02-10T20:39:57.887Z,98759.19
2024-02-10T20:42:27.333Z,98758.38
2024-02-10T20:44:53.914Z,98765.09
2024-02-10T20:47:20.498Z,98762.50
2024-02-10T20:49:47.503Z,98763.31
2024-02-10T20:52:15.220Z,98765.09
2024-02-10T20:54:43.801Z,98758.09
2024-02-10T20:57:12.047Z,98760.00
2024-02-10T20:59:39.464Z,98756.59
2024-02-10T21:02:07.847Z,98758.38
2024-02-10T21:04:35.089Z,98759.34
2024-02-10T21:07:04.356Z,98769.91
2024-02-10T21:09:30.901Z,98763.88
2024-02-10T21:12:00.065Z,98757.84
2024-02-10T21:14:27.998Z,98760.44
2024-02-10T21:16:58.216Z,98760.31
2024-02-10T21:19:25.811Z,98762.06
2024-02-10T21:21:52.312Z,98764.69
2024-02-10T21:24:22.350Z,98757.97
2024-02-10T21:26:50.055Z,98764.97
2024-02-10T21:31:43.196Z,98761.53
2024-02-10T21:34:10.138Z,98759.88
2024-02-10T21:36:36.848Z,98751.25
2024-02-10T21:39:11.393Z,98750.28
2024-02-10T21:41:38.629Z,98752.88
2024-02-10T21:44:06.072Z,98749.47
2024-02-10T21:46:32.646Z,98752.88
2024-02-10T21:48:59.530Z,98750.44
2024-02-10T21:51:26.140Z,98743.44
2024-02-10T21:53:55.729Z,98745.75
2024-02-10T21:56:22.180Z,98743.13
2024-02-10T21:58:51.604Z,98742.19
2024-02-10T22:01:19.362Z,98739.84
2024-02-10T22:03:46.104Z,98734.78
2024-02-10T22:06:12.819Z,98730.25
2024-02-10T22:08:39.401Z,98735.59
2024-02-10T22:11:06.424Z,98739.16
2024-02-10T22:13:33.254Z,98737.41
2024-02-10T22:16:00.915Z,98732.31
2024-02-10T22:18:30.364Z,98733.28
2024-02-10T22:20:58.413Z,98730.94
2024-02-10T22:23:24.841Z,98737.41
2024-02-10T22:25:51.540Z,98737.94
2024-02-10T22:28:17.993Z,98727.53
2024-02-10T22:30:44.456Z,98738.91
2024-02-10T22:33:11.532Z,98731.91
2024-02-10T22:35:38.407Z,98732.59
2024-02-10T22:38:08.079Z,98723.81
2024-02-10T22:40:35.221Z,98724.63
2024-02-10T22:43:01.865Z,98727.22
2024-02-10T22:45:28.387Z,98721.06
2024-02-10T22:47:55.588Z,98722.56
2024-02-10T22:50:23.125Z,98719.28
2024-02-10T22:52:51.030Z,98722.84
2024-02-10T22:55:18.607Z,98716.66
2024-02-10T22:57:45.191Z,98715.03
2024-02-10T23:00:29.826Z,98722.00
2024-02-10T23:02:56.433Z,98722.19
2024-02-10T23:05:25.425Z,98726.72
2024-02-10T23:07:51.986Z,98726.97
2024-02-10T23:10:18.484Z,98728.75
2024-02-10T23:12:51.103Z,98732.19
2024-02-10T23:15:22.919Z,98729.56
2024-02-10T23:17:50.422Z,98727.78
2024-02-10T23:20:18.373Z,98722.44
2024-02-10T23:22:45.012Z,98723.13
2024-02-10T23:25:12.617Z,98718.03
2024-02-10T23:27:40.519Z,98717.22
2024-02-10T23:30:09.259Z,98720.81
2024-02-10T23:32:39.210Z,98713.13
2024-02-10T23:35:10.088Z,98705.00
2024-02-10T23:37:38.255Z,98704.31
2024-02-10T23:40:14.359Z,98698.28
2024-02-10T23:42:43.546Z,98699.94
2024-02-10T23:45:10.708Z,98687.31
2024-02-10T23:47:37.218Z,98689.66
2024-02-10T23:50:06.371Z,98686.22
2024-02-10T23:52:32.991Z,98689.91
2024-02-10T23:54:59.502Z,98689.41
2024-02-10T23:57:25.985Z,98686.91
2024-02-10T23:59:52.524Z,98691.31
